Time;durP1;ratioP1;P1;durP2;ratioP2;P2;SDS_P1;SDS_P2;PMS_P1;PMS_P2;Temp;Humidity;BMP_temperature;BMP_pressure;BME280_temperature;BME280_humidity;BME280_pressure;Samples;Min_cycle;Max_cycle;Signal;HPM_P1;HPM_P2
2022/07/05 00:02:25;;;;;;;11.75;3.10;;;;;;;;;;5025656;27;97301;-76
2022/07/05 00:04:52;;;;;;;6.05;3.13;;;;;;;;;;5028567;27;95405;-77
2022/07/05 00:07:18;;;;;;;4.82;3.17;;;;;;;;;;5029986;28;97212;-76
2022/07/05 00:09:49;;;;;;;4.93;3.13;;;;;;;;;;5029582;28;97932;-76
2022/07/05 00:12:16;;;;;;;7.30;2.92;;;;;;;;;;5016148;27;97515;-74
2022/07/05 00:14:46;;;;;;;5.65;2.90;;;;;;;;;;5026378;28;97356;-76
2022/07/05 00:17:13;;;;;;;5.00;3.22;;;;;;;;;;5012084;28;95416;-76
2022/07/05 00:19:39;;;;;;;10.82;3.20;;;;;;;;;;5022338;27;97198;-75
2022/07/05 00:22:06;;;;;;;9.13;3.30;;;;;;;;;;5009574;28;97807;-77
2022/07/05 00:24:32;;;;;;;5.22;3.05;;;;;;;;;;5002425;28;96567;-76
2022/07/05 00:26:59;;;;;;;5.30;3.05;;;;;;;;;;5029141;27;97322;-76
2022/07/05 00:29:25;;;;;;;5.03;3.22;;;;;;;;;;5029192;28;98140;-76
2022/07/05 00:31:52;;;;;;;5.57;3.13;;;;;;;;;;5029081;28;95283;-75
2022/07/05 00:34:18;;;;;;;5.93;3.20;;;;;;;;;;5028821;27;96960;-76
2022/07/05 00:36:45;;;;;;;6.10;3.10;;;;;;;;;;5023376;27;96839;-76
2022/07/05 00:39:12;;;;;;;5.55;2.97;;;;;;;;;;5009452;28;96773;-75
2022/07/05 00:41:38;;;;;;;5.93;3.50;;;;;;;;;;5013915;27;97441;-76
2022/07/05 00:44:06;;;;;;;6.72;3.30;;;;;;;;;;5028758;27;96048;-75
2022/07/05 00:46:33;;;;;;;7.32;3.42;;;;;;;;;;5025036;27;97399;-75
2022/07/05 00:48:59;;;;;;;5.53;3.50;;;;;;;;;;5029310;28;98206;-76
2022/07/05 00:51:28;;;;;;;6.32;3.47;;;;;;;;;;5029400;28;95359;-76
2022/07/05 00:53:55;;;;;;;5.72;2.92;;;;;;;;;;5028987;28;96049;-76
2022/07/05 00:56:23;;;;;;;6.50;3.03;;;;;;;;;;5023484;27;98032;-76
2022/07/05 00:58:50;;;;;;;7.63;3.15;;;;;;;;;;5031082;28;95539;-76
2022/07/05 01:01:17;;;;;;;4.13;2.80;;;;;;;;;;5017112;28;97467;-76
2022/07/05 01:03:44;;;;;;;4.18;2.80;;;;;;;;;;5027362;27;95572;-76
2022/07/05 01:06:11;;;;;;;8.85;3.67;;;;;;;;;;5009402;28;97259;-76
2022/07/05 01:08:41;;;;;;;4.88;3.03;;;;;;;;;;5009141;28;99098;-77
2022/07/05 01:11:08;;;;;;;7.15;3.25;;;;;;;;;;5027946;28;95650;-75
2022/07/05 01:13:36;;;;;;;6.68;3.03;;;;;;;;;;5027634;27;97188;-74
2022/07/05 01:16:03;;;;;;;6.10;3.35;;;;;;;;;;5010565;27;96755;-76
2022/07/05 01:18:31;;;;;;;4.18;3.20;;;;;;;;;;5015237;28;95715;-76
2022/07/05 01:21:02;;;;;;;6.30;3.47;;;;;;;;;;5027553;28;96666;-76
2022/07/05 01:23:29;;;;;;;5.65;4.00;;;;;;;;;;5018035;27;95502;-77
2022/07/05 01:25:56;;;;;;;8.70;3.80;;;;;;;;;;5014342;27;97331;-76
2022/07/05 01:28:23;;;;;;;6.57;3.53;;;;;;;;;;5007331;28;97536;-76
2022/07/05 01:30:49;;;;;;;10.93;4.07;;;;;;;;;;5008282;28;95392;-76
2022/07/05 01:33:15;;;;;;;5.53;3.42;;;;;;;;;;5015595;27;96953;-75
2022/07/05 01:35:42;;;;;;;4.75;3.38;;;;;;;;;;5026430;27;97348;-76
2022/07/05 01:38:10;;;;;;;5.55;3.50;;;;;;;;;;5013336;27;95752;-76
2022/07/05 01:40:36;;;;;;;7.22;4.35;;;;;;;;;;5010668;28;96661;-76
2022/07/05 01:43:02;;;;;;;8.27;3.85;;;;;;;;;;5008841;28;95719;-76
2022/07/05 01:45:44;;;;;;;5.90;3.47;;;;;;;;;;5011870;27;96734;-76
2022/07/05 01:48:12;;;;;;;6.68;3.72;;;;;;;;;;5020948;27;97478;-76
2022/07/05 01:50:41;;;;;;;5.88;3.47;;;;;;;;;;5022798;28;95745;-76
2022/07/05 01:53:10;;;;;;;5.03;3.10;;;;;;;;;;5012529;28;96940;-76
2022/07/05 01:55:37;;;;;;;5.75;3.20;;;;;;;;;;5012895;27;97367;-76
2022/07/05 01:58:03;;;;;;;5.60;3.05;;;;;;;;;;5010695;28;95739;-76
2022/07/05 02:00:29;;;;;;;5.45;3.40;;;;;;;;;;5020453;28;97123;-74
2022/07/05 02:02:56;;;;;;;6.22;3.40;;;;;;;;;;5032903;27;97399;-75
2022/07/05 02:05:22;;;;;;;10.00;3.47;;;;;;;;;;5017810;27;95725;-74
2022/07/05 02:07:50;;;;;;;8.23;3.42;;;;;;;;;;5011162;28;97733;-74
2022/07/05 02:10:16;;;;;;;6.75;3.50;;;;;;;;;;5010643;27;96007;-75
2022/07/05 02:12:45;;;;;;;6.35;3.80;;;;;;;;;;5016680;28;96854;-74
2022/07/05 02:15:11;;;;;;;6.03;3.40;;;;;;;;;;5020122;27;97915;-75
2022/07/05 02:17:38;;;;;;;8.55;3.85;;;;;;;;;;5030828;28;95310;-75
2022/07/05 02:20:05;;;;;;;6.70;3.58;;;;;;;;;;5029596;28;96237;-76
2022/07/05 02:22:32;;;;;;;12.52;3.55;;;;;;;;;;5010933;28;98112;-75
2022/07/05 02:24:59;;;;;;;6.53;3.42;;;;;;;;;;5018251;27;95796;-74
2022/07/05 02:27:26;;;;;;;7.63;3.55;;;;;;;;;;5030896;28;98091;-76
2022/07/05 02:29:53;;;;;;;6.75;3.70;;;;;;;;;;5007361;28;95373;-76
2022/07/05 02:32:19;;;;;;;8.10;3.58;;;;;;;;;;5015074;27;96999;-76
2022/07/05 02:34:46;;;;;;;9.10;3.10;;;;;;;;;;5015433;27;96943;-76
2022/07/05 02:37:13;;;;;;;6.30;3.60;;;;;;;;;;5031445;28;95178;-76
2022/07/05 02:39:39;;;;;;;6.65;3.38;;;;;;;;;;5029374;28;97467;-76
2022/07/05 02:42:06;;;;;;;6.63;3.85;;;;;;;;;;5014213;27;97814;-76
2022/07/05 02:44:32;;;;;;;5.57;3.35;;;;;;;;;;4994248;28;95665;-76
2022/07/05 02:46:59;;;;;;;5.57;3.70;;;;;;;;;;5030176;27;97197;-77
2022/07/05 02:49:25;;;;;;;5.72;3.58;;;;;;;;;;5013704;27;95586;-76
2022/07/05 02:51:52;;;;;;;4.97;3.50;;;;;;;;;;5030627;28;97317;-76
2022/07/05 20:32:32;;;;;;;7.25;1.77;;;;;;;;;;5062054;27;1296615;-77
2022/07/05 20:34:59;;;;;;;4.63;1.70;;;;;;;;;;5076881;27;96225;-77
2022/07/05 20:37:25;;;;;;;4.85;1.70;;;;;;;;;;5069640;27;95073;-77
2022/07/05 20:39:52;;;;;;;7.78;1.83;;;;;;;;;;5079855;27;96571;-77
2022/07/05 20:42:18;;;;;;;8.02;1.75;;;;;;;;;;5089011;27;97290;-77
2022/07/05 20:44:44;;;;;;;5.18;2.17;;;;;;;;;;5084533;27;95293;-77
2022/07/05 20:47:11;;;;;;;11.75;2.10;;;;;;;;;;5089417;27;96722;-77
2022/07/05 20:49:37;;;;;;;3.83;1.52;;;;;;;;;;5088597;27;97615;-77
2022/07/05 20:52:04;;;;;;;2.20;1.60;;;;;;;;;;5089485;27;96372;-78
2022/07/05 20:54:30;;;;;;;5.50;1.88;;;;;;;;;;5084486;27;97108;-74
2022/07/05 20:56:56;;;;;;;6.50;1.98;;;;;;;;;;5089348;27;95549;-74
2022/07/05 20:59:23;;;;;;;4.82;1.92;;;;;;;;;;5089251;27;96741;-75
2022/07/05 21:01:49;;;;;;;3.40;1.55;;;;;;;;;;5085796;27;97239;-78
2022/07/05 21:04:16;;;;;;;3.92;1.40;;;;;;;;;;5083014;27;95848;-73
2022/07/05 21:06:45;;;;;;;3.30;1.65;;;;;;;;;;5083459;27;96326;-77
2022/07/05 21:09:12;;;;;;;3.20;1.45;;;;;;;;;;5077665;27;97308;-76
2022/07/05 21:11:38;;;;;;;6.28;1.85;;;;;;;;;;5073738;27;95339;-77
2022/07/05 21:14:04;;;;;;;4.95;1.70;;;;;;;;;;5080297;27;95606;-77
2022/07/05 21:16:31;;;;;;;2.88;1.80;;;;;;;;;;5074195;27;96376;-74
2022/07/05 21:19:01;;;;;;;3.35;1.65;;;;;;;;;;5082965;27;99512;-74
2022/07/05 21:21:28;;;;;;;4.47;1.70;;;;;;;;;;5071305;27;96769;-76
2022/07/05 21:23:54;;;;;;;3.30;1.48;;;;;;;;;;5074603;27;95472;-76
2022/07/05 21:26:21;;;;;;;2.72;1.63;;;;;;;;;;5070945;27;96680;-77
2022/07/05 21:28:56;;;;;;;3.05;1.80;;;;;;;;;;5085117;27;97162;-72
2022/07/05 21:31:24;;;;;;;2.70;1.60;;;;;;;;;;5068565;27;95410;-76
2022/07/05 21:33:50;;;;;;;4.05;1.75;;;;;;;;;;5070221;27;96790;-75
2022/07/05 21:36:17;;;;;;;4.07;2.25;;;;;;;;;;5072287;27;97770;-75
2022/07/05 21:38:43;;;;;;;3.15;1.52;;;;;;;;;;5083568;27;96528;-74
2022/07/05 21:41:15;;;;;;;3.85;1.52;;;;;;;;;;5087535;27;97377;-74
2022/07/05 21:43:41;;;;;;;4.90;1.70;;;;;;;;;;5070302;27;95395;-76
2022/07/05 21:46:08;;;;;;;5.78;1.73;;;;;;;;;;5075598;27;96784;-77
2022/07/05 21:48:34;;;;;;;3.72;1.75;;;;;;;;;;5074751;27;96434;-76
2022/07/05 21:51:00;;;;;;;6.20;2.03;;;;;;;;;;5070352;27;95376;-75
2022/07/05 21:53:27;;;;;;;5.70;2.53;;;;;;;;;;5074368;27;96843;-74
2022/07/05 21:55:53;;;;;;;7.72;2.70;;;;;;;;;;5073412;27;97189;-75
2022/07/05 21:58:19;;;;;;;5.35;3.08;;;;;;;;;;5076694;27;97011;-77
2022/07/05 22:06:16;;;;;;;5.70;2.60;;;;;;;;;;5053208;27;96734;-76
2022/07/05 22:08:42;;;;;;;5.40;2.40;;;;;;;;;;5064737;27;97310;-77
2022/07/05 22:13:53;;;;;;;6.15;2.03;;;;;;;;;;5075183;27;96737;-76
2022/07/05 22:16:20;;;;;;;8.32;2.63;;;;;;;;;;5074611;27;97309;-77
2022/07/05 22:18:46;;;;;;;4.40;1.98;;;;;;;;;;5074572;27;95249;-76
2022/07/05 22:21:13;;;;;;;6.80;2.35;;;;;;;;;;5076895;27;96766;-77
2022/07/05 22:23:39;;;;;;;6.28;2.70;;;;;;;;;;5075114;27;95877;-76
2022/07/05 22:26:05;;;;;;;6.03;3.15;;;;;;;;;;5075533;27;97022;-76
2022/07/05 22:28:32;;;;;;;10.73;3.35;;;;;;;;;;5073755;27;97273;-76
2022/07/05 22:30:58;;;;;;;5.15;3.00;;;;;;;;;;5069695;27;95380;-76
2022/07/05 22:33:24;;;;;;;8.48;3.10;;;;;;;;;;5054989;27;96863;-77
2022/07/05 22:35:51;;;;;;;5.53;2.67;;;;;;;;;;5054209;27;97389;-77
2022/07/05 22:38:17;;;;;;;7.88;2.25;;;;;;;;;;5065884;27;95591;-75
2022/07/05 22:40:44;;;;;;;4.88;2.05;;;;;;;;;;5074688;27;96833;-76
2022/07/05 22:43:10;;;;;;;6.25;2.20;;;;;;;;;;5077004;27;95177;-76
2022/07/05 22:45:43;;;;;;;3.88;1.90;;;;;;;;;;5074990;27;97120;-75
2022/07/05 22:48:09;;;;;;;2.75;1.52;;;;;;;;;;5072820;27;97510;-76
2022/07/05 22:50:35;;;;;;;7.00;2.10;;;;;;;;;;5074258;27;95243;-76
2022/07/05 22:53:02;;;;;;;2.88;1.67;;;;;;;;;;5074084;27;96682;-75
2022/07/05 22:55:28;;;;;;;5.82;1.80;;;;;;;;;;5072271;27;96232;-75
2022/07/05 22:57:55;;;;;;;4.00;1.70;;;;;;;;;;5069803;27;95393;-75
2022/07/05 23:00:21;;;;;;;4.50;1.70;;;;;;;;;;5072537;27;96593;-76
2022/07/05 23:02:47;;;;;;;4.95;2.22;;;;;;;;;;5077547;27;96923;-75
2022/07/05 23:05:14;;;;;;;4.72;1.85;;;;;;;;;;5075056;27;96738;-76
2022/07/05 23:07:40;;;;;;;5.22;1.55;;;;;;;;;;5072385;27;97518;-76
2022/07/05 23:10:07;;;;;;;3.80;1.58;;;;;;;;;;5073546;27;95891;-76
2022/07/05 23:12:33;;;;;;;5.95;2.08;;;;;;;;;;5074720;27;96846;-76
2022/07/05 23:14:59;;;;;;;3.45;1.70;;;;;;;;;;5074212;27;97506;-76
2022/07/05 23:17:26;;;;;;;5.05;1.98;;;;;;;;;;5073434;27;95257;-75
2022/07/05 23:19:52;;;;;;;4.45;1.98;;;;;;;;;;5073754;27;97187;-76
2022/07/05 23:22:18;;;;;;;6.00;2.10;;;;;;;;;;5074039;27;97507;-76
2022/07/05 23:24:56;;;;;;;4.25;1.75;;;;;;;;;;5077056;27;95453;-76
2022/07/05 23:27:27;;;;;;;6.55;2.15;;;;;;;;;;5074445;27;97334;-76
2022/07/05 23:29:53;;;;;;;5.78;1.75;;;;;;;;;;5058099;27;96620;-76
2022/07/05 23:32:20;;;;;;;3.53;1.80;;;;;;;;;;5073909;27;97032;-76
2022/07/05 23:34:47;;;;;;;4.70;1.77;;;;;;;;;;5073385;27;97411;-76
2022/07/05 23:37:15;;;;;;;4.65;1.70;;;;;;;;;;5074052;27;95459;-76
2022/07/05 23:39:42;;;;;;;5.57;1.85;;;;;;;;;;5061340;27;96732;-76
2022/07/05 23:42:08;;;;;;;5.88;1.90;;;;;;;;;;5074364;27;97310;-76
2022/07/05 23:44:35;;;;;;;6.43;2.08;;;;;;;;;;5073376;27;96284;-76
2022/07/05 23:47:02;;;;;;;6.13;1.67;;;;;;;;;;5077121;27;96696;-76
2022/07/05 23:49:28;;;;;;;5.15;1.95;;;;;;;;;;5069906;27;95288;-76
2022/07/05 23:51:54;;;;;;;5.55;2.03;;;;;;;;;;5071443;27;96940;-76
2022/07/05 23:54:21;;;;;;;9.13;2.72;;;;;;;;;;5073623;27;97669;-76
2022/07/05 23:56:47;;;;;;;8.13;2.03;;;;;;;;;;5074110;27;95296;-76
2022/07/05 23:59:13;;;;;;;3.72;1.70;;;;;;;;;;5068313;27;97095;-75
